Time;durP1;ratioP1;P1;durP2;ratioP2;P2;SDS_P1;SDS_P2;PMS_P1;PMS_P2;Temp;Humidity;BMP_temperature;BMP_pressure;BME280_temperature;BME280_humidity;BME280_pressure;Samples;Min_cycle;Max_cycle;Signal;HPM_P1;HPM_P2
2023/12/07 00:01:06;;;;;;;44.75;33.55;;;;;;;-1.74;100.00;101858.09;5083406;28;20094;-70
2023/12/07 00:03:31;;;;;;;43.53;32.47;;;;;;;-1.79;100.00;101858.66;5086615;28;20020;-70
2023/12/07 00:05:57;;;;;;;42.60;31.90;;;;;;;-1.77;100.00;101848.41;5084655;28;20024;-71
2023/12/07 00:08:22;;;;;;;46.72;35.65;;;;;;;-1.70;100.00;101845.44;5085453;28;20029;-71
2023/12/07 00:10:47;;;;;;;43.97;34.20;;;;;;;-1.67;100.00;101839.59;5085503;28;20241;-71
2023/12/07 00:13:13;;;;;;;41.20;32.53;;;;;;;-1.70;100.00;101844.53;5083756;28;20028;-71
2023/12/07 00:15:38;;;;;;;45.45;34.50;;;;;;;-1.79;100.00;101835.34;5086609;28;20047;-72
2023/12/07 00:18:04;;;;;;;43.70;34.28;;;;;;;-1.74;100.00;101833.06;5083513;28;20029;-71
2023/12/07 00:20:30;;;;;;;43.30;33.03;;;;;;;-1.80;100.00;101838.72;5085760;28;20451;-71
2023/12/07 00:22:55;;;;;;;40.20;30.88;;;;;;;-1.89;100.00;101838.06;5084060;28;20024;-71
2023/12/07 00:25:21;;;;;;;42.05;32.78;;;;;;;-1.93;100.00;101836.06;5084896;28;20498;-71
2023/12/07 00:27:47;;;;;;;45.47;34.90;;;;;;;-1.98;100.00;101835.72;5085190;28;20063;-71
2023/12/07 00:30:12;;;;;;;45.45;34.65;;;;;;;-1.91;100.00;101834.44;5083499;28;20067;-70
2023/12/07 00:32:38;;;;;;;44.85;33.85;;;;;;;-1.97;100.00;101839.22;5086636;28;20086;-71
2023/12/07 00:35:04;;;;;;;43.75;34.00;;;;;;;-2.04;100.00;101844.75;5078928;28;20443;-71
2023/12/07 00:37:29;;;;;;;47.50;36.60;;;;;;;-2.04;100.00;101835.31;5085453;28;20047;-71
2023/12/07 00:39:54;;;;;;;46.78;36.10;;;;;;;-2.02;100.00;101850.97;5084080;28;20065;-70
2023/12/07 00:42:20;;;;;;;46.42;36.67;;;;;;;-1.98;100.00;101845.19;5084122;28;20155;-71
2023/12/07 00:44:45;;;;;;;46.53;36.88;;;;;;;-1.92;100.00;101843.03;5085313;28;20035;-71
2023/12/07 00:47:10;;;;;;;49.80;37.70;;;;;;;-1.91;100.00;101839.63;5082864;28;20033;-72
2023/12/07 00:49:42;;;;;;;48.47;37.55;;;;;;;-1.87;100.00;101836.47;5085956;28;20031;-71
2023/12/07 00:52:08;;;;;;;50.22;39.20;;;;;;;-1.89;100.00;101831.97;5079052;28;20044;-71
2023/12/07 00:54:33;;;;;;;52.60;41.03;;;;;;;-1.79;100.00;101830.16;5086408;28;20387;-71
2023/12/07 00:56:59;;;;;;;52.00;40.45;;;;;;;-1.73;100.00;101833.94;5082861;28;20028;-72
2023/12/07 00:59:24;;;;;;;53.60;41.90;;;;;;;-1.68;100.00;101830.00;5084667;28;20036;-72
2023/12/07 01:01:50;;;;;;;48.55;37.58;;;;;;;-1.77;100.00;101836.31;5084172;28;20035;-71
2023/12/07 01:04:16;;;;;;;53.75;36.67;;;;;;;-1.80;100.00;101833.53;5083247;28;20029;-71
2023/12/07 01:06:42;;;;;;;53.25;41.47;;;;;;;-1.75;100.00;101841.63;5085501;28;20138;-71
2023/12/07 01:09:08;;;;;;;55.88;43.33;;;;;;;-1.74;100.00;101838.25;5082141;28;20033;-71
2023/12/07 01:11:34;;;;;;;54.17;42.78;;;;;;;-1.74;100.00;101846.03;5078144;28;20498;-71
2023/12/07 01:13:59;;;;;;;48.63;37.45;;;;;;;-1.87;100.00;101852.03;5085106;28;20115;-71
2023/12/07 01:16:24;;;;;;;54.72;41.58;;;;;;;-1.87;100.00;101846.84;5081857;28;20491;-71
2023/12/07 01:18:50;;;;;;;55.05;42.20;;;;;;;-1.86;100.00;101856.44;5082429;28;20341;-71
2023/12/07 01:21:15;;;;;;;59.63;44.55;;;;;;;-1.90;100.00;101858.72;5084620;28;20024;-71
2023/12/07 01:23:40;;;;;;;52.35;41.75;;;;;;;-1.87;100.00;101853.72;5081987;28;20025;-71
2023/12/07 01:26:06;;;;;;;51.10;40.15;;;;;;;-1.91;100.00;101860.38;5085255;28;20082;-71
2023/12/07 01:28:32;;;;;;;49.50;40.20;;;;;;;-1.94;100.00;101855.91;5082145;28;20043;-71
2023/12/07 01:30:57;;;;;;;50.85;41.17;;;;;;;-1.91;100.00;101846.53;5084262;28;20021;-71
2023/12/07 01:33:23;;;;;;;54.33;43.05;;;;;;;-1.88;100.00;101851.94;5082549;28;20030;-71
2023/12/07 01:35:48;;;;;;;55.40;43.22;;;;;;;-1.88;100.00;101850.22;5083048;28;20151;-71
2023/12/07 01:38:13;;;;;;;55.38;43.55;;;;;;;-1.83;100.00;101851.47;5084319;28;20082;-71
2023/12/07 01:40:39;;;;;;;58.10;44.92;;;;;;;-1.77;100.00;101849.28;5081414;28;20043;-70
2023/12/07 01:43:04;;;;;;;56.10;44.80;;;;;;;-1.75;100.00;101852.00;5077451;28;20152;-71
2023/12/07 01:45:30;;;;;;;60.05;44.90;;;;;;;-1.75;100.00;101854.59;5084295;28;20032;-70
2023/12/07 01:47:56;;;;;;;57.53;44.83;;;;;;;-1.70;100.00;101852.31;5082756;28;20066;-71
2023/12/07 01:50:23;;;;;;;57.25;45.17;;;;;;;-1.67;100.00;101860.31;5083103;28;20032;-70
2023/12/07 01:52:51;;;;;;;59.33;46.20;;;;;;;-1.67;100.00;101853.44;5083538;28;20073;-70
2023/12/07 01:55:17;;;;;;;57.78;45.78;;;;;;;-1.67;100.00;101847.38;5082382;28;20029;-71
2023/12/07 01:57:44;;;;;;;57.40;44.90;;;;;;;-1.66;100.00;101849.13;5084132;28;20068;-70
2023/12/07 02:00:11;;;;;;;56.50;45.33;;;;;;;-1.68;100.00;101849.03;5081243;28;20048;-70
2023/12/07 02:02:37;;;;;;;61.47;46.78;;;;;;;-1.69;100.00;101856.72;5084901;28;20047;-71
2023/12/07 02:05:04;;;;;;;66.35;46.47;;;;;;;-1.65;100.00;101853.53;5081417;28;20028;-71
2023/12/07 02:07:30;;;;;;;75.88;48.20;;;;;;;-1.56;100.00;101855.88;5083880;28;20047;-71
2023/12/07 02:09:57;;;;;;;102.22;51.75;;;;;;;-1.55;100.00;101853.38;5082374;28;20032;-71
2023/12/07 02:12:23;;;;;;;135.48;50.55;;;;;;;-1.47;100.00;101849.63;5082929;28;20033;-71
2023/12/07 02:14:49;;;;;;;135.73;50.80;;;;;;;-1.45;100.00;101862.72;5083290;28;20049;-69
2023/12/07 02:17:21;;;;;;;182.20;54.38;;;;;;;-1.43;100.00;101856.84;5081753;28;20043;-70
2023/12/07 02:20:24;;;;;;;187.52;54.15;;;;;;;-1.33;100.00;101860.06;5083659;28;20046;-70
2023/12/07 02:22:54;;;;;;;;;;;;;;;-1.32;100.00;101864.47;5048276;28;20535;-71
2023/12/07 02:25:27;;;;;;;205.32;53.80;;;;;;;-1.36;100.00;101867.63;5083274;28;19916;-70
2023/12/07 02:27:52;;;;;;;156.35;50.40;;;;;;;-1.36;100.00;101870.22;5082687;28;20028;-71
2023/12/07 02:30:18;;;;;;;221.35;55.17;;;;;;;-1.37;100.00;101876.22;5083219;28;20510;-71
2023/12/07 02:32:45;;;;;;;199.63;53.67;;;;;;;-1.38;100.00;101877.91;5081869;28;20044;-71
2023/12/07 02:35:14;;;;;;;178.35;52.90;;;;;;;-1.37;100.00;101878.81;5084330;28;20056;-70
2023/12/07 02:37:50;;;;;;;199.90;55.33;;;;;;;-1.38;100.00;101877.91;5080750;28;20055;-70
2023/12/07 02:40:18;;;;;;;158.82;50.92;;;;;;;-1.39;100.00;101875.22;5079097;28;20025;-71
2023/12/07 02:42:44;;;;;;;193.10;51.55;;;;;;;-1.40;100.00;101871.69;5083756;28;20044;-71
2023/12/07 02:45:10;;;;;;;138.38;47.90;;;;;;;-1.36;100.00;101862.44;5082825;28;20025;-71
2023/12/07 02:47:36;;;;;;;159.20;49.40;;;;;;;-1.35;100.00;101869.44;5081136;28;20033;-70
2023/12/07 02:50:06;;;;;;;140.25;49.47;;;;;;;-1.34;100.00;101872.16;5086770;28;20024;-71
2023/12/07 02:52:32;;;;;;;184.07;52.45;;;;;;;-1.36;100.00;101865.94;5085190;28;20035;-70
2023/12/07 02:54:58;;;;;;;165.32;49.53;;;;;;;-1.39;100.00;101867.44;5087283;28;20051;-71
2023/12/07 02:57:23;;;;;;;155.13;47.60;;;;;;;-1.39;100.00;101870.03;5086367;28;20028;-71
2023/12/07 02:59:48;;;;;;;131.43;45.92;;;;;;;-1.34;100.00;101872.16;5085819;28;20460;-72
2023/12/07 03:02:14;;;;;;;125.93;45.40;;;;;;;-1.35;100.00;101869.44;5087628;28;20027;-72
2023/12/07 03:04:39;;;;;;;162.65;47.25;;;;;;;-1.35;100.00;101864.25;5084574;28;20024;-72
2023/12/07 03:07:04;;;;;;;162.00;45.35;;;;;;;-1.37;100.00;101871.00;5086718;28;20028;-72
2023/12/07 03:09:30;;;;;;;169.43;46.72;;;;;;;-1.40;100.00;101866.50;5085272;28;20068;-72
2023/12/07 03:11:55;;;;;;;180.43;47.28;;;;;;;-1.41;100.00;101870.81;5086591;28;20483;-72
2023/12/07 03:14:20;;;;;;;168.48;44.00;;;;;;;-1.39;100.00;101862.25;5086278;28;20032;-72
2023/12/07 03:16:46;;;;;;;159.93;44.13;;;;;;;-1.39;100.00;101864.84;5085208;28;20021;-72
2023/12/07 03:19:11;;;;;;;170.20;45.72;;;;;;;-1.38;100.00;101870.13;5087501;28;20028;-72
2023/12/07 03:21:41;;;;;;;137.88;44.70;;;;;;;-1.39;100.00;101873.50;5084489;28;20036;-72
2023/12/07 03:24:08;;;;;;;171.88;46.15;;;;;;;-1.42;100.00;101876.78;5079338;28;20020;-72
2023/12/07 03:26:33;;;;;;;183.55;47.95;;;;;;;-1.42;100.00;101876.78;5087379;28;20024;-72
2023/12/07 03:28:59;;;;;;;144.43;43.85;;;;;;;-1.39;100.00;101867.44;5084851;28;20030;-72
2023/12/07 03:31:24;;;;;;;193.13;44.70;;;;;;;-1.43;100.00;101867.22;5086207;28;20036;-72
2023/12/07 03:33:49;;;;;;;172.88;44.78;;;;;;;-1.41;100.00;101876.00;5086405;28;20513;-72
2023/12/07 03:36:15;;;;;;;173.23;46.38;;;;;;;-1.42;100.00;101874.19;5084818;28;20404;-73
2023/12/07 03:38:40;;;;;;;147.63;42.38;;;;;;;-1.41;100.00;101869.91;5087580;28;20036;-73
2023/12/07 03:41:05;;;;;;;174.90;44.33;;;;;;;-1.41;100.00;101875.09;5079661;28;20059;-70
2023/12/07 03:43:31;;;;;;;161.43;42.85;;;;;;;-1.39;100.00;101881.28;5086899;28;20475;-71
2023/12/07 03:45:56;;;;;;;160.27;43.80;;;;;;;-1.38;100.00;101883.09;5085082;28;20024;-71
2023/12/07 03:48:21;;;;;;;170.82;43.85;;;;;;;-1.38;100.00;101890.88;5085225;28;20107;-69
2023/12/07 03:50:46;;;;;;;149.10;41.08;;;;;;;-1.39;100.00;101885.59;5085150;28;20127;-70
2023/12/07 03:53:12;;;;;;;149.85;41.60;;;;;;;-1.41;100.00;101882.91;5083874;28;20056;-72
2023/12/07 03:55:38;;;;;;;156.25;42.65;;;;;;;-1.43;100.00;101887.97;5086587;28;20024;-70
2023/12/07 03:58:04;;;;;;;177.18;42.95;;;;;;;-1.43;100.00;101895.75;5084137;28;20041;-71
2023/12/07 04:00:31;;;;;;;188.57;42.55;;;;;;;-1.43;100.00;101889.66;5086116;28;20025;-70
2023/12/07 04:02:56;;;;;;;209.80;45.03;;;;;;;-1.38;100.00;101889.97;5084745;28;20035;-70
2023/12/07 04:05:22;;;;;;;179.32;42.55;;;;;;;-1.39;100.00;101893.38;5085524;28;20348;-71
2023/12/07 04:07:47;;;;;;;170.73;43.97;;;;;;;-1.37;100.00;101902.16;5086178;28;20038;-68
2023/12/07 04:10:13;;;;;;;176.95;42.80;;;;;;;-1.36;100.00;101897.06;5083584;28;20499;-67
2023/12/07 04:12:38;;;;;;;165.13;42.05;;;;;;;-1.37;100.00;101892.66;5087008;28;20364;-70
2023/12/07 04:15:04;;;;;;;150.23;42.47;;;;;;;-1.36;100.00;101891.88;5083776;28;20090;-70
2023/12/07 04:17:29;;;;;;;149.30;41.10;;;;;;;-1.34;100.00;101891.97;5085954;28;20039;-70
2023/12/07 04:19:55;;;;;;;137.70;36.15;;;;;;;-1.43;100.00;101903.53;5084852;28;20463;-72
2023/12/07 04:22:20;;;;;;;168.25;38.97;;;;;;;-1.49;100.00;101897.00;5084654;28;20024;-72
2023/12/07 04:24:45;;;;;;;156.02;38.38;;;;;;;-1.51;100.00;101899.50;5086054;28;20540;-72
2023/12/07 04:27:11;;;;;;;144.48;37.38;;;;;;;-1.52;100.00;101902.00;5083031;28;20494;-72
2023/12/07 04:29:36;;;;;;;107.78;34.05;;;;;;;-1.51;100.00;101909.88;5078866;28;20490;-72
2023/12/07 04:32:02;;;;;;;144.95;34.33;;;;;;;-1.52;100.00;101910.66;5086246;28;20032;-72
2023/12/07 04:34:27;;;;;;;149.70;36.17;;;;;;;-1.53;100.00;101914.06;5084360;28;20371;-72
2023/12/07 04:36:53;;;;;;;133.30;35.53;;;;;;;-1.49;100.00;101910.88;5084328;28;20028;-72
2023/12/07 04:39:18;;;;;;;139.13;34.35;;;;;;;-1.50;100.00;101915.94;5085388;28;20506;-72
2023/12/07 04:41:44;;;;;;;138.55;35.50;;;;;;;-1.50;100.00;101916.88;5082930;28;20044;-72
2023/12/07 04:44:09;;;;;;;123.95;34.47;;;;;;;-1.51;100.00;101919.38;5086125;28;20025;-72
2023/12/07 04:46:35;;;;;;;146.80;33.17;;;;;;;-1.52;100.00;101913.25;5083012;28;20439;-72
2023/12/07 04:49:01;;;;;;;131.55;32.17;;;;;;;-1.51;100.00;101908.97;5085436;28;20036;-72
2023/12/07 04:51:26;;;;;;;150.25;34.03;;;;;;;-1.52;100.00;101902.00;5082648;28;20039;-72
2023/12/07 04:53:51;;;;;;;148.07;34.85;;;;;;;-1.50;100.00;101898.72;5082904;28;20380;-72
2023/12/07 04:56:17;;;;;;;137.02;34.38;;;;;;;-1.49;100.00;101899.59;5085155;28;20467;-70
2023/12/07 04:58:42;;;;;;;155.18;35.55;;;;;;;-1.46;100.00;101908.47;5082410;28;20497;-72
2023/12/07 05:01:07;;;;;;;164.07;33.35;;;;;;;-1.45;100.00;101909.41;5085860;28;20039;-72
2023/12/07 05:03:33;;;;;;;127.38;30.50;;;;;;;-1.46;100.00;101892.91;5082730;28;20021;-71
2023/12/07 05:05:58;;;;;;;123.20;30.52;;;;;;;-1.43;100.00;101885.38;5084851;28;20036;-73
2023/12/07 05:08:23;;;;;;;108.97;28.45;;;;;;;-1.42;100.00;101892.34;5083253;28;20111;-72
2023/12/07 05:10:49;;;;;;;131.27;29.38;;;;;;;-1.45;100.00;101894.72;5083104;28;20021;-72
2023/12/07 05:13:14;;;;;;;150.02;29.95;;;;;;;-1.41;100.00;101875.09;5085576;28;20032;-72
2023/12/07 05:15:40;;;;;;;118.72;28.50;;;;;;;-1.43;100.00;101880.19;5082310;28;20096;-73
2023/12/07 05:18:05;;;;;;;138.18;29.52;;;;;;;-1.41;100.00;101882.91;5084010;28;20081;-73
2023/12/07 05:20:30;;;;;;;113.30;27.48;;;;;;;-1.39;100.00;101875.22;5083202;28;20390;-72
2023/12/07 05:22:56;;;;;;;132.40;27.75;;;;;;;-1.39;100.00;101878.69;5083919;28;20044;-71
2023/12/07 05:25:21;;;;;;;141.10;30.48;;;;;;;-1.37;100.00;101876.22;5084001;28;20054;-72
2023/12/07 05:27:47;;;;;;;123.18;28.73;;;;;;;-1.35;100.00;101874.63;5082737;28;20051;-71
2023/12/07 05:30:12;;;;;;;165.63;30.00;;;;;;;-1.35;100.00;101875.53;5085125;28;20368;-71
2023/12/07 05:32:38;;;;;;;109.38;27.27;;;;;;;-1.34;100.00;101876.41;5081757;28;20056;-71
2023/12/07 05:35:04;;;;;;;114.88;26.63;;;;;;;-1.30;100.00;101884.50;5084926;28;20050;-71
2023/12/07 05:37:29;;;;;;;141.10;29.73;;;;;;;-1.29;100.00;101875.06;5082588;28;20085;-71
2023/12/07 05:39:54;;;;;;;115.75;27.98;;;;;;;-1.29;100.00;101870.75;5083589;28;20368;-71
2023/12/07 05:42:20;;;;;;;144.43;29.33;;;;;;;-1.26;100.00;101862.28;5083713;28;20044;-71
2023/12/07 05:44:45;;;;;;;103.25;25.33;;;;;;;-1.27;100.00;101874.38;5081122;28;20407;-71
2023/12/07 05:47:11;;;;;;;128.18;28.15;;;;;;;-1.24;100.00;101874.56;5083994;28;20111;-71
2023/12/07 05:49:36;;;;;;;117.10;26.58;;;;;;;-1.25;100.00;101871.88;5081413;28;20476;-71
2023/12/07 05:52:02;;;;;;;150.25;28.40;;;;;;;-1.20;100.00;101872.19;5082862;28;20034;-71
2023/12/07 05:54:28;;;;;;;151.43;29.42;;;;;;;-1.20;100.00;101872.19;5082850;28;20032;-71
2023/12/07 05:56:53;;;;;;;135.68;27.73;;;;;;;-1.17;100.00;101864.59;5082793;28;20104;-71
2023/12/07 05:59:18;;;;;;;183.77;30.55;;;;;;;-1.15;100.00;101871.72;5083874;28;20032;-71
2023/12/07 06:01:44;;;;;;;133.00;29.13;;;;;;;-1.15;100.00;101871.72;5081715;28;20357;-73
2023/12/07 06:04:10;;;;;;;140.40;28.85;;;;;;;-1.15;100.00;101874.31;5084686;28;20070;-73
2023/12/07 06:06:35;;;;;;;205.10;31.63;;;;;;;-1.14;100.00;101870.88;5081453;28;20119;-72
2023/12/07 06:09:01;;;;;;;112.35;26.05;;;;;;;-1.12;100.00;101866.72;5084016;28;20073;-73
2023/12/07 06:11:26;;;;;;;166.68;29.40;;;;;;;-1.10;100.00;101872.91;5082565;28;20032;-72
2023/12/07 06:13:52;;;;;;;201.25;28.85;;;;;;;-1.08;100.00;101876.53;5082508;28;20028;-73
2023/12/07 06:16:18;;;;;;;138.85;26.70;;;;;;;-1.08;100.00;101875.59;5084002;28;20035;-73
2023/12/07 06:18:44;;;;;;;131.40;26.13;;;;;;;-1.08;100.00;101875.59;5080942;28;20028;-73
2023/12/07 06:21:09;;;;;;;138.52;26.65;;;;;;;-1.09;100.00;101873.81;5084637;28;20387;-74
2023/12/07 06:23:35;;;;;;;192.70;29.65;;;;;;;-1.07;100.00;101869.63;5081389;28;20020;-73
2023/12/07 06:26:01;;;;;;;135.05;26.42;;;;;;;-1.06;100.00;101874.03;5083424;28;20027;-72
2023/12/07 06:28:27;;;;;;;160.70;27.98;;;;;;;-1.07;100.00;101869.63;5082536;28;20078;-73
2023/12/07 06:30:52;;;;;;;138.90;25.35;;;;;;;-1.05;100.00;101881.00;5082333;28;20454;-73
2023/12/07 06:33:18;;;;;;;166.00;26.52;;;;;;;-1.03;100.00;101875.91;5083539;28;20024;-73
2023/12/07 06:35:43;;;;;;;153.10;26.05;;;;;;;-1.03;100.00;101871.63;5081166;28;20032;-72
2023/12/07 06:38:08;;;;;;;142.52;25.65;;;;;;;-1.03;100.00;101871.63;5084530;28;20474;-72
2023/12/07 06:40:34;;;;;;;132.85;24.92;;;;;;;-1.00;100.00;101865.75;5081210;28;20032;-73
2023/12/07 06:42:59;;;;;;;126.10;25.25;;;;;;;-0.98;100.00;101856.38;5083558;28;20048;-72
2023/12/07 06:45:24;;;;;;;141.90;25.80;;;;;;;-0.98;100.00;101848.59;5082597;28;20034;-72
2023/12/07 06:47:50;;;;;;;135.32;26.45;;;;;;;-0.97;100.00;101842.59;5081741;28;20475;-73
2023/12/07 06:50:15;;;;;;;117.03;25.50;;;;;;;-0.95;100.00;101849.66;5083953;28;20096;-72
2023/12/07 06:52:40;;;;;;;140.63;25.98;;;;;;;-0.94;100.00;101837.63;5080713;28;20120;-73
2023/12/07 06:55:06;;;;;;;108.82;24.90;;;;;;;-0.95;100.00;101841.88;5084405;28;20035;-71
2023/12/07 06:57:33;;;;;;;110.10;24.67;;;;;;;-0.92;100.00;101836.91;5081721;28;20043;-73
2023/12/07 06:59:58;;;;;;;139.70;29.13;;;;;;;-0.93;100.00;101839.41;5082764;28;20391;-70
2023/12/07 07:02:24;;;;;;;126.75;26.48;;;;;;;-0.93;100.00;101836.81;5082653;28;20035;-72
2023/12/07 07:04:49;;;;;;;121.68;26.85;;;;;;;-0.95;100.00;101846.19;5081483;28;20025;-70
2023/12/07 07:07:15;;;;;;;129.05;27.33;;;;;;;-0.94;100.00;101848.00;5083553;28;20126;-71
2023/12/07 07:09:40;;;;;;;132.68;27.15;;;;;;;-0.95;100.00;101848.78;5080626;28;20035;-71
2023/12/07 07:12:06;;;;;;;120.10;25.73;;;;;;;-0.93;100.00;101850.69;5083726;28;20144;-71
2023/12/07 07:14:31;;;;;;;139.93;27.02;;;;;;;-0.91;100.00;101853.38;5081376;28;20077;-71
2023/12/07 07:16:57;;;;;;;126.07;27.35;;;;;;;-0.92;100.00;101855.09;5082598;28;20024;-72
2023/12/07 07:19:22;;;;;;;128.20;27.45;;;;;;;-0.89;100.00;101862.16;5082634;28;20058;-71
2023/12/07 07:21:47;;;;;;;106.40;25.88;;;;;;;-0.85;100.00;101863.28;5081160;28;20028;-72
2023/12/07 07:24:13;;;;;;;123.85;28.20;;;;;;;-0.85;100.00;101852.91;5084036;28;20112;-71
2023/12/07 07:26:38;;;;;;;105.20;26.48;;;;;;;-0.83;100.00;101862.59;5079553;28;20063;-71
2023/12/07 07:29:04;;;;;;;108.57;28.27;;;;;;;-0.83;100.00;101862.59;5083450;28;20475;-71
2023/12/07 07:31:30;;;;;;;119.13;28.77;;;;;;;-0.79;100.00;101869.78;5084312;28;20020;-72
2023/12/07 07:33:55;;;;;;;106.38;29.25;;;;;;;-0.76;100.00;101866.47;5086005;28;20387;-71
2023/12/07 07:36:21;;;;;;;99.00;29.48;;;;;;;-0.71;100.00;101860.81;5086612;28;20040;-71
2023/12/07 07:38:48;;;;;;;96.95;29.05;;;;;;;-0.68;100.00;101877.38;5084469;28;20036;-71
2023/12/07 07:41:13;;;;;;;104.60;29.90;;;;;;;-0.64;100.00;101874.19;5087357;28;20049;-71
2023/12/07 07:43:39;;;;;;;102.25;29.45;;;;;;;-0.61;100.00;101875.31;5084173;28;20036;-71
2023/12/07 07:46:04;;;;;;;116.55;31.38;;;;;;;-0.59;100.00;101863.31;5086709;28;20040;-71
2023/12/07 07:48:30;;;;;;;119.40;31.38;;;;;;;-0.58;100.00;101867.72;5083560;28;20024;-71
2023/12/07 07:50:55;;;;;;;127.35;32.17;;;;;;;-0.56;100.00;101863.50;5085586;28;20033;-70
2023/12/07 07:53:21;;;;;;;111.00;31.02;;;;;;;-0.52;100.00;101859.44;5086039;28;20024;-72
2023/12/07 07:55:46;;;;;;;106.95;31.05;;;;;;;-0.51;100.00;101861.25;5084102;28;20032;-72
2023/12/07 07:58:11;;;;;;;105.80;31.98;;;;;;;-0.49;100.00;101853.53;5087169;28;20028;-72
2023/12/07 08:00:37;;;;;;;106.60;30.55;;;;;;;-0.46;100.00;101866.72;5083652;28;20043;-72
2023/12/07 08:03:02;;;;;;;99.95;32.20;;;;;;;-0.46;100.00;101854.63;5086084;28;20032;-71
2023/12/07 08:05:28;;;;;;;95.72;31.52;;;;;;;-0.44;100.00;101857.31;5085216;28;20047;-71
2023/12/07 08:07:54;;;;;;;97.15;31.23;;;;;;;-0.42;100.00;101855.75;5084802;28;20063;-71
2023/12/07 08:10:20;;;;;;;79.88;29.98;;;;;;;-0.45;100.00;101853.84;5085902;28;20497;-71
2023/12/07 08:12:45;;;;;;;81.93;30.67;;;;;;;-0.42;100.00;101860.94;5084088;28;20033;-72
2023/12/07 08:15:11;;;;;;;68.93;27.90;;;;;;;-0.41;100.00;101857.50;5086804;28;20523;-72
2023/12/07 08:17:40;;;;;;;72.20;27.70;;;;;;;-0.46;100.00;101854.63;5083696;28;20025;-70
2023/12/07 08:20:07;;;;;;;72.97;27.50;;;;;;;-0.46;100.00;101854.63;5084803;28;20028;-72
2023/12/07 08:22:32;;;;;;;75.05;28.48;;;;;;;-0.46;100.00;101861.53;5080865;28;20025;-71
2023/12/07 08:24:59;;;;;;;65.07;27.17;;;;;;;-0.45;100.00;101865.91;5077899;28;20487;-72
2023/12/07 08:27:25;;;;;;;65.75;27.77;;;;;;;-0.47;100.00;101858.00;5082269;28;20434;-70
2023/12/07 08:29:50;;;;;;;62.15;27.80;;;;;;;-0.45;100.00;101853.84;5079351;28;20060;-73
2023/12/07 08:32:18;;;;;;;70.25;27.90;;;;;;;-0.44;100.00;101860.81;5080574;28;20468;-73
2023/12/07 08:34:44;;;;;;;63.88;27.95;;;;;;;-0.42;100.00;101861.81;5086606;28;20514;-74
2023/12/07 08:37:09;;;;;;;57.67;28.77;;;;;;;-0.41;100.00;101865.31;5082770;28;20068;-74
2023/12/07 08:39:35;;;;;;;55.33;26.05;;;;;;;-0.40;100.00;101862.81;5086126;28;20483;-73
2023/12/07 08:42:01;;;;;;;62.03;26.55;;;;;;;-0.38;100.00;101863.81;5083433;28;20044;-73
2023/12/07 08:44:26;;;;;;;62.05;26.33;;;;;;;-0.35;100.00;101865.69;5084548;28;20379;-73
2023/12/07 08:46:52;;;;;;;57.38;25.95;;;;;;;-0.36;100.00;101867.41;5083726;28;20031;-73
2023/12/07 08:49:17;;;;;;;60.30;26.02;;;;;;;-0.34;100.00;101854.50;5083424;28;20035;-74
2023/12/07 08:51:42;;;;;;;58.55;26.20;;;;;;;-0.33;100.00;101865.84;5086383;28;20523;-73
2023/12/07 08:54:08;;;;;;;61.90;28.17;;;;;;;-0.33;100.00;101866.72;5078624;28;20035;-73
2023/12/07 08:56:33;;;;;;;64.85;27.52;;;;;;;-0.30;100.00;101874.72;5085312;28;20055;-73
2023/12/07 08:58:59;;;;;;;67.05;27.23;;;;;;;-0.27;100.00;101876.63;5065513;28;20044;-73
2023/12/07 09:01:26;;;;;;;63.00;26.83;;;;;;;-0.24;100.00;101869.91;5084236;28;20036;-74
2023/12/07 09:03:51;;;;;;;67.85;28.88;;;;;;;-0.21;100.00;101864.00;5084592;28;20035;-73
2023/12/07 09:06:17;;;;;;;69.15;28.73;;;;;;;-0.19;100.00;101862.38;5083017;28;20024;-73
2023/12/07 09:08:43;;;;;;;68.60;28.55;;;;;;;-0.15;100.00;101850.50;5085984;28;20031;-73
2023/12/07 09:11:08;;;;;;;64.88;28.17;;;;;;;-0.12;100.00;101854.19;5078053;28;20098;-74
2023/12/07 09:13:34;;;;;;;76.25;30.55;;;;;;;-0.11;100.00;101852.50;5084928;28;20085;-73
2023/12/07 09:15:59;;;;;;;71.80;29.70;;;;;;;-0.11;100.00;101843.00;5083493;28;20028;-74
2023/12/07 09:18:24;;;;;;;73.63;29.88;;;;;;;-0.07;100.00;101846.72;5083544;28;20438;-72
2023/12/07 09:20:50;;;;;;;65.05;28.88;;;;;;;-0.03;100.00;101852.19;5084891;28;20066;-72
2023/12/07 09:23:16;;;;;;;71.85;28.45;;;;;;;0.00;100.00;101854.09;5082265;28;20025;-72
2023/12/07 09:25:42;;;;;;;76.32;30.40;;;;;;;0.01;100.00;101850.66;5085624;28;20078;-71
2023/12/07 09:28:08;;;;;;;79.25;31.25;;;;;;;0.04;100.00;101836.97;5082043;28;20495;-72
2023/12/07 09:30:33;;;;;;;76.07;30.90;;;;;;;0.10;100.00;101842.56;5084611;28;20036;-72
2023/12/07 09:32:59;;;;;;;72.32;30.10;;;;;;;0.11;100.00;101845.25;5083486;28;20039;-71
2023/12/07 09:35:25;;;;;;;66.10;30.30;;;;;;;0.10;100.00;101839.94;5083555;28;20028;-71
2023/12/07 09:37:50;;;;;;;66.25;30.30;;;;;;;0.09;100.00;101836.47;5083971;28;20092;-71
2023/12/07 09:40:18;;;;;;;67.60;29.70;;;;;;;0.17;100.00;101831.72;5081957;28;20032;-72
2023/12/07 09:42:44;;;;;;;67.43;30.35;;;;;;;0.21;100.00;101828.53;5084931;28;20052;-72
2023/12/07 09:45:10;;;;;;;64.57;29.48;;;;;;;0.28;100.00;101825.50;5081527;28;20491;-71
2023/12/07 09:47:38;;;;;;;62.75;29.88;;;;;;;0.40;100.00;101833.16;5084628;28;20073;-70
2023/12/07 09:50:11;;;;;;;64.13;30.25;;;;;;;0.47;100.00;101827.53;5082251;28;20475;-70
2023/12/07 09:52:37;;;;;;;62.00;28.80;;;;;;;0.59;100.00;101823.88;5084846;28;20073;-70
2023/12/07 09:55:04;;;;;;;61.67;29.63;;;;;;;0.73;100.00;101816.88;5080858;28;20405;-72
2023/12/07 09:57:30;;;;;;;63.28;29.70;;;;;;;1.01;100.00;101816.81;5083573;28;20040;-72
2023/12/07 09:59:55;;;;;;;60.35;30.00;;;;;;;1.30;100.00;101812.41;5083109;28;20035;-71
2023/12/07 10:02:21;;;;;;;61.00;29.95;;;;;;;1.56;100.00;101800.88;5082233;28;20463;-71
2023/12/07 10:04:47;;;;;;;54.53;28.27;;;;;;;1.63;100.00;101791.66;5084402;28;20035;-71
2023/12/07 10:07:13;;;;;;;55.15;28.10;;;;;;;2.02;100.00;101787.72;5081214;28;20033;-72
2023/12/07 10:09:42;;;;;;;51.08;27.00;;;;;;;2.02;100.00;101792.94;5072966;28;20074;-72
2023/12/07 10:12:08;;;;;;;47.25;25.63;;;;;;;2.17;100.00;101779.84;5084868;28;20370;-73
2023/12/07 10:14:33;;;;;;;45.97;25.13;;;;;;;2.46;100.00;101784.81;5081943;28;20620;-71
2023/12/07 10:16:59;;;;;;;45.05;25.08;;;;;;;2.69;100.00;101771.22;5083131;28;20036;-71
2023/12/07 10:19:27;;;;;;;43.92;24.73;;;;;;;3.08;100.00;101767.94;5083109;28;20027;-72
2023/12/07 10:21:53;;;;;;;37.92;22.10;;;;;;;3.14;100.00;101763.91;5082174;28;20476;-72
2023/12/07 10:24:20;;;;;;;37.80;21.75;;;;;;;3.15;100.00;101764.81;5083804;28;20383;-72
2023/12/07 10:26:46;;;;;;;33.53;20.38;;;;;;;3.10;100.00;101759.38;5081350;28;20032;-72
2023/12/07 10:29:12;;;;;;;31.75;18.90;;;;;;;3.37;100.00;101745.84;5084440;28;20059;-72
2023/12/07 10:31:38;;;;;;;30.77;17.77;;;;;;;3.75;100.00;101746.75;5081053;28;20132;-71
2023/12/07 10:34:04;;;;;;;29.80;17.10;;;;;;;4.18;100.00;101740.00;5083767;28;20036;-70
2023/12/07 10:36:30;;;;;;;26.85;15.95;;;;;;;4.58;100.00;101741.72;5082095;28;20028;-71
2023/12/07 10:38:56;;;;;;;26.30;14.98;;;;;;;5.13;100.00;101727.41;5082401;28;20123;-72
2023/12/07 10:41:23;;;;;;;26.02;14.73;;;;;;;5.26;100.00;101722.66;5083259;28;20065;-72
2023/12/07 10:44:03;;;;;;;25.85;14.57;;;;;;;5.48;100.00;101706.94;5081399;28;20048;-70
2023/12/07 10:46:32;;;;;;;24.67;13.93;;;;;;;5.95;100.00;101701.72;5082442;28;20436;-71
2023/12/07 10:49:03;;;;;;;25.40;14.30;;;;;;;6.16;100.00;101687.59;5082621;28;20067;-71
2023/12/07 10:51:34;;;;;;;23.60;13.20;;;;;;;6.39;100.00;101689.34;5082419;28;20060;-71
2023/12/07 10:54:03;;;;;;;27.10;13.07;;;;;;;6.59;100.00;101679.50;5082888;28;20154;-71